Time;durP1;ratioP1;P1;durP2;ratioP2;P2;SDS_P1;SDS_P2;PMS_P1;PMS_P2;Temp;Humidity;BMP_temperature;BMP_pressure;BME280_temperature;BME280_humidity;BME280_pressure;Samples;Min_cycle;Max_cycle;Signal;HPM_P1;HPM_P2
2021/12/08 00:16:48;;;;;;;3.30;1.75;;;2.80;99.90;;;;;;4896392;29;20059;-76
2021/12/08 00:19:13;;;;;;;5.70;1.38;;;2.80;99.90;;;;;;4894162;29;20482;-76
2021/12/08 00:21:39;;;;;;;2.78;1.80;;;2.80;99.90;;;;;;4894870;29;20043;-76
2021/12/08 00:24:05;;;;;;;5.25;2.65;;;2.80;99.90;;;;;;4893926;29;20025;-76
2021/12/08 00:26:31;;;;;;;3.30;1.35;;;2.80;99.90;;;;;;4893467;29;20040;-76
2021/12/08 00:28:56;;;;;;;2.35;2.22;;;2.80;99.90;;;;;;4894298;29;20033;-76
2021/12/08 00:31:22;;;;;;;5.43;1.85;;;2.80;99.90;;;;;;4893062;29;20047;-76
2021/12/08 00:33:48;;;;;;;5.03;1.73;;;2.90;99.90;;;;;;4892864;29;20060;-76
2021/12/08 00:36:15;;;;;;;1.70;1.60;;;2.90;99.90;;;;;;4893319;29;20025;-76
2021/12/08 00:38:41;;;;;;;2.45;1.38;;;2.90;99.90;;;;;;4893801;29;20036;-76
2021/12/08 00:41:07;;;;;;;2.15;1.92;;;2.80;99.90;;;;;;4895258;29;20060;-76
2021/12/08 00:43:33;;;;;;;5.65;2.40;;;2.80;99.90;;;;;;4892851;29;20497;-76
2021/12/08 00:45:59;;;;;;;3.67;2.22;;;2.80;99.90;;;;;;4894389;29;20120;-75
2021/12/08 00:48:25;;;;;;;2.92;2.17;;;2.80;99.90;;;;;;4920172;29;20916;-76
2021/12/08 00:50:52;;;;;;;2.50;1.88;;;2.80;99.90;;;;;;4915314;29;20095;-76
2021/12/08 00:53:18;;;;;;;1.65;1.50;;;2.80;99.90;;;;;;4932605;29;20059;-75
2021/12/08 00:55:43;;;;;;;3.85;3.00;;;2.90;99.90;;;;;;4915155;29;20392;-76
2021/12/08 00:58:09;;;;;;;4.85;2.05;;;2.80;99.90;;;;;;4915611;29;20066;-76
2021/12/08 01:00:51;;;;;;;2.03;1.80;;;2.80;99.90;;;;;;4932135;29;20069;-76
2021/12/08 01:03:18;;;;;;;3.03;2.25;;;2.90;99.90;;;;;;4933393;29;20527;-76
2021/12/08 01:05:55;;;;;;;4.25;2.75;;;2.90;99.90;;;;;;4933873;29;20131;-76
2021/12/08 01:08:24;;;;;;;1.77;1.65;;;2.90;99.90;;;;;;4951510;29;20036;-76
2021/12/08 01:10:53;;;;;;;4.93;2.65;;;2.90;99.90;;;;;;4934503;29;20035;-76
2021/12/08 01:13:20;;;;;;;3.95;2.63;;;2.80;99.90;;;;;;4934050;29;20054;-75
2021/12/08 01:15:50;;;;;;;2.28;1.80;;;2.80;99.90;;;;;;4952191;29;20139;-75
2021/12/08 01:18:17;;;;;;;3.70;2.03;;;2.80;99.90;;;;;;4933671;29;20086;-76
2021/12/08 01:20:44;;;;;;;4.68;2.40;;;2.80;99.90;;;;;;4933869;29;20058;-76
2021/12/08 01:23:10;;;;;;;4.57;2.13;;;2.90;99.90;;;;;;4934132;29;20409;-75
2021/12/08 01:25:37;;;;;;;3.15;2.17;;;2.90;99.90;;;;;;4950789;28;20069;-76
2021/12/08 01:28:03;;;;;;;4.22;3.00;;;2.90;99.90;;;;;;4950531;29;20130;-75
2021/12/08 01:30:28;;;;;;;1.92;1.80;;;2.90;99.90;;;;;;4950007;29;20126;-76
2021/12/08 01:32:56;;;;;;;5.57;2.58;;;3.00;99.90;;;;;;4932438;29;20037;-75
2021/12/08 01:35:24;;;;;;;5.22;2.60;;;2.90;99.90;;;;;;4951312;29;20245;-74
2021/12/08 01:37:50;;;;;;;4.85;1.73;;;2.90;99.90;;;;;;4932405;29;20039;-75
2021/12/08 01:40:17;;;;;;;4.43;2.47;;;3.00;99.90;;;;;;4932662;29;20039;-75
2021/12/08 01:42:49;;;;;;;3.30;2.13;;;3.00;99.90;;;;;;4949659;29;20031;-76
2021/12/08 01:48:10;;;;;;;4.85;2.60;;;3.00;99.90;;;;;;4949000;29;20430;-75
2021/12/08 01:50:37;;;;;;;2.47;2.28;;;3.00;99.90;;;;;;4948438;29;20440;-75
2021/12/08 01:53:05;;;;;;;1.63;1.52;;;2.90;99.90;;;;;;4931951;29;20271;-75
2021/12/08 01:55:31;;;;;;;2.20;2.00;;;3.00;99.90;;;;;;4950151;29;20029;-75
2021/12/08 01:57:57;;;;;;;10.32;4.82;;;3.00;99.90;;;;;;4950464;29;20074;-75
2021/12/08 02:00:32;;;;;;;3.75;2.60;;;3.10;99.90;;;;;;4948600;29;20024;-75
2021/12/08 02:02:58;;;;;;;5.90;2.97;;;3.00;99.90;;;;;;4913103;29;20034;-76
2021/12/08 02:05:24;;;;;;;3.05;2.22;;;3.10;99.90;;;;;;4914126;29;20230;-75
2021/12/08 02:07:51;;;;;;;3.63;3.10;;;3.10;99.90;;;;;;4931667;29;20035;-76
2021/12/08 02:10:17;;;;;;;6.18;3.05;;;3.00;99.90;;;;;;4913456;29;20555;-75
2021/12/08 02:12:43;;;;;;;5.90;3.90;;;3.00;99.90;;;;;;4913201;29;20115;-76
2021/12/08 02:15:13;;;;;;;4.35;2.65;;;3.00;99.90;;;;;;4930544;29;20185;-75
2021/12/08 02:17:39;;;;;;;3.95;2.60;;;3.00;99.90;;;;;;4931374;29;20452;-76
2021/12/08 02:20:08;;;;;;;3.47;2.90;;;3.00;99.90;;;;;;4913717;29;20481;-76
2021/12/08 02:22:34;;;;;;;2.85;2.65;;;3.00;99.90;;;;;;4914404;29;20128;-75
2021/12/08 02:25:00;;;;;;;10.68;2.92;;;3.10;99.90;;;;;;4913455;29;20130;-75
2021/12/08 02:27:26;;;;;;;3.42;3.00;;;3.00;99.90;;;;;;4913254;29;20087;-76
2021/12/08 02:29:59;;;;;;;4.05;3.50;;;3.00;99.90;;;;;;4929821;29;20028;-76
2021/12/08 02:49:09;;;;;;;6.22;2.92;;;3.00;99.90;;;;;;4934755;29;20048;-76
2021/12/08 02:51:36;;;;;;;3.05;2.20;;;3.00;99.90;;;;;;4933894;29;20035;-75
2021/12/08 02:54:02;;;;;;;9.88;2.88;;;3.00;99.90;;;;;;4917711;29;20024;-76
2021/12/08 02:56:30;;;;;;;3.97;3.05;;;3.00;99.90;;;;;;4934053;29;20047;-75
2021/12/08 02:58:57;;;;;;;7.25;3.63;;;3.00;99.90;;;;;;4933842;29;20106;-76
2021/12/08 03:01:22;;;;;;;4.90;3.25;;;3.10;99.90;;;;;;4921180;29;20043;-75
2021/12/08 03:03:50;;;;;;;3.13;2.00;;;3.10;99.90;;;;;;4953049;29;20023;-76
2021/12/08 03:06:15;;;;;;;8.57;2.88;;;3.10;99.90;;;;;;4952686;29;20028;-76
2021/12/08 03:08:41;;;;;;;3.72;2.53;;;3.20;99.90;;;;;;4952583;29;20069;-76
2021/12/08 03:11:08;;;;;;;5.05;3.00;;;3.20;99.90;;;;;;4935730;29;20575;-76
2021/12/08 03:13:38;;;;;;;3.38;2.70;;;3.20;99.90;;;;;;4935869;29;20050;-77
2021/12/08 03:16:04;;;;;;;4.43;3.35;;;3.10;99.90;;;;;;4952191;29;20015;-75
2021/12/08 03:18:34;;;;;;;3.35;2.75;;;3.10;99.90;;;;;;4934601;29;20039;-75
2021/12/08 03:21:08;;;;;;;5.05;4.53;;;3.10;99.90;;;;;;4952827;29;20026;-76
2021/12/08 03:24:22;;;;;;;7.10;2.92;;;3.10;99.90;;;;;;4951941;29;20476;-75
2021/12/08 03:26:30;;;;;;;5.00;3.08;;;3.20;99.90;;;;;;4941495;29;20046;-76
2021/12/08 03:29:05;;;;;;;5.57;2.65;;;3.10;99.90;;;;;;4952726;29;20027;-76
2021/12/08 03:31:39;;;;;;;5.97;3.38;;;3.20;99.90;;;;;;4936504;29;20590;-82
2021/12/08 03:34:05;;;;;;;5.32;3.67;;;3.10;99.90;;;;;;4956782;29;20031;-79
2021/12/08 03:36:31;;;;;;;4.75;3.53;;;3.10;99.90;;;;;;4952701;29;20091;-80
2021/12/08 03:38:56;;;;;;;5.45;1.95;;;3.10;99.90;;;;;;4945222;29;20027;-81
2021/12/08 03:41:22;;;;;;;5.72;2.92;;;3.10;99.90;;;;;;4967366;29;20031;-80
2021/12/08 03:43:48;;;;;;;8.25;3.63;;;3.00;99.90;;;;;;4955625;29;20054;-80
2021/12/08 03:46:16;;;;;;;10.70;2.70;;;3.10;99.90;;;;;;4951132;29;20030;-81
2021/12/08 03:48:48;;;;;;;9.07;3.95;;;3.10;99.90;;;;;;4949469;28;20055;-79
2021/12/08 03:51:16;;;;;;;8.73;3.50;;;3.10;99.90;;;;;;4968553;29;20084;-81
2021/12/08 03:53:42;;;;;;;4.40;3.03;;;3.00;99.90;;;;;;4953485;29;20035;-80
2021/12/08 03:56:08;;;;;;;4.03;3.42;;;3.10;99.90;;;;;;4973309;29;20078;-80
2021/12/08 03:58:35;;;;;;;13.02;3.83;;;3.10;99.90;;;;;;4955372;23;20050;-81
2021/12/08 04:01:03;;;;;;;7.07;4.20;;;3.20;99.90;;;;;;4956495;29;20043;-81
2021/12/08 04:03:31;;;;;;;6.20;3.78;;;3.10;99.90;;;;;;4955882;28;20055;-81
2021/12/08 04:06:01;;;;;;;5.97;3.25;;;;;;;;;;5033310;23;20083;-81
2021/12/08 04:08:42;;;;;;;3.35;3.05;;;3.20;99.90;;;;;;4900768;29;20025;-80
2021/12/08 04:11:09;;;;;;;7.22;3.45;;;3.10;99.90;;;;;;4909010;29;20105;-81
2021/12/08 04:13:48;;;;;;;4.55;3.22;;;3.20;99.90;;;;;;4898063;29;20488;-81
2021/12/08 04:16:19;;;;;;;5.68;2.85;;;3.20;99.90;;;;;;4915332;29;20033;-81
2021/12/08 04:18:45;;;;;;;5.93;3.15;;;3.20;99.90;;;;;;4898852;29;20033;-81
2021/12/08 04:21:13;;;;;;;5.45;3.63;;;3.30;99.90;;;;;;4901599;29;20013;-82
2021/12/08 04:23:40;;;;;;;5.22;3.30;;;3.30;99.90;;;;;;4882279;29;20021;-81
2021/12/08 04:26:55;;;;;;;5.00;3.50;;;3.20;99.90;;;;;;4903036;29;20021;-83
2021/12/08 04:29:26;;;;;;;6.97;3.88;;;2.20;99.90;;;;;;4916013;29;20033;-83
2021/12/08 04:31:53;;;;;;;5.45;3.47;;;3.30;99.90;;;;;;4899944;29;20044;-83
2021/12/08 04:34:25;;;;;;;4.07;1.58;;;3.20;99.90;;;;;;4906211;29;20066;-79
2021/12/08 04:36:53;;;;;;;5.28;3.60;;;3.40;99.90;;;;;;4893728;29;20044;-78
2021/12/08 04:39:35;;;;;;;1.73;1.63;;;3.50;99.90;;;;;;4881196;29;20104;-79
2021/12/08 04:42:28;;;;;;;5.88;1.92;;;3.60;99.90;;;;;;4912286;29;20033;-81
2021/12/08 04:45:03;;;;;;;1.27;0.95;;;3.50;99.90;;;;;;4880598;29;20028;-81
2021/12/08 04:47:46;;;;;;;2.63;0.80;;;4.00;99.90;;;;;;4908560;29;20048;-81
2021/12/08 04:50:31;;;;;;;0.32;0.30;;;4.20;99.90;;;;;;4894249;29;20379;-79
2021/12/08 05:09:14;;;;;;;0.10;0.10;;;4.50;99.90;;;;;;4910772;29;20400;-80
2021/12/08 05:11:48;;;;;;;1.08;0.10;;;4.50;99.90;;;;;;4897898;29;20036;-82
2021/12/08 05:14:23;;;;;;;0.35;0.35;;;4.50;99.90;;;;;;4916144;29;20020;-81
2021/12/08 05:16:54;;;;;;;0.10;0.10;;;4.50;99.90;;;;;;4895243;29;20040;-82
2021/12/08 05:19:24;;;;;;;0.05;0.05;;;4.40;99.90;;;;;;4905493;29;20009;-80
2021/12/08 05:21:59;;;;;;;;;;;4.50;99.90;;;;;;4899560;29;20478;-80
2021/12/08 05:24:47;;;;;;;0.10;0.10;;;4.50;99.90;;;;;;4887587;29;20013;-80
2021/12/08 05:27:20;;;;;;;7.03;0.32;;;4.40;99.90;;;;;;4903010;29;20474;-82
2021/12/08 05:29:57;;;;;;;0.00;0.00;;;4.40;99.90;;;;;;4902304;29;20016;-83
2021/12/08 05:32:24;;;;;;;2.83;0.30;;;4.40;99.90;;;;;;4899779;29;20068;-83
2021/12/08 05:34:50;;;;;;;0.10;0.10;;;4.40;99.90;;;;;;4890178;29;20225;-78
2021/12/08 05:37:23;;;;;;;0.10;0.10;;;4.40;99.90;;;;;;4890379;29;20064;-80
2021/12/08 05:39:50;;;;;;;0.10;0.10;;;4.40;99.90;;;;;;4902380;29;20017;-84
2021/12/08 05:42:22;;;;;;;0.82;0.20;;;4.40;99.90;;;;;;4907371;29;20033;-81
2021/12/08 05:44:47;;;;;;;0.00;0.00;;;4.30;99.90;;;;;;4883342;29;20279;-80
2021/12/08 05:47:17;;;;;;;0.10;0.10;;;4.30;99.90;;;;;;4897085;29;20021;-82
2021/12/08 05:49:43;;;;;;;0.00;0.00;;;4.20;99.90;;;;;;4881863;29;20439;-78
2021/12/08 05:52:09;;;;;;;0.10;0.10;;;4.20;99.90;;;;;;4867051;29;20077;-84
2021/12/08 05:54:42;;;;;;;0.00;0.00;;;4.10;99.90;;;;;;4880973;29;20058;-84
2021/12/08 05:57:17;;;;;;;0.10;0.10;;;4.10;99.90;;;;;;4906564;29;20033;-81
2021/12/08 05:59:49;;;;;;;0.13;0.13;;;4.10;99.90;;;;;;4893055;29;20033;-78
2021/12/08 06:02:26;;;;;;;0.10;0.10;;;4.10;99.90;;;;;;4881467;29;20051;-80
2021/12/08 06:04:52;;;;;;;0.30;0.30;;;4.10;99.90;;;;;;4869814;29;20009;-82
2021/12/08 06:07:21;;;;;;;0.20;0.20;;;4.60;99.90;;;;;;4873721;29;20116;-76
2021/12/08 06:09:49;;;;;;;0.10;0.10;;;4.00;99.90;;;;;;4888095;29;20067;-76
2021/12/08 06:12:15;;;;;;;0.05;0.05;;;4.00;99.90;;;;;;4874359;29;20061;-76
2021/12/08 06:14:41;;;;;;;0.00;0.00;;;4.00;99.90;;;;;;4877752;29;20099;-76
2021/12/08 06:17:14;;;;;;;0.05;0.05;;;4.00;99.90;;;;;;4877366;29;20119;-76
2021/12/08 06:19:43;;;;;;;0.05;0.05;;;3.90;99.90;;;;;;4877857;29;20021;-75
2021/12/08 06:22:11;;;;;;;0.10;0.10;;;4.00;99.90;;;;;;4876895;29;20033;-76
2021/12/08 06:24:38;;;;;;;0.20;0.20;;;4.00;99.90;;;;;;4877741;29;20546;-76
2021/12/08 06:27:04;;;;;;;0.03;0.03;;;4.00;99.90;;;;;;4876989;29;20053;-76
2021/12/08 06:29:30;;;;;;;0.00;0.00;;;3.90;99.90;;;;;;4878392;29;20384;-76
2021/12/08 06:31:58;;;;;;;0.63;0.08;;;3.90;99.90;;;;;;4892892;29;20529;-76
2021/12/08 06:34:25;;;;;;;0.10;0.10;;;3.90;99.90;;;;;;4878193;29;20033;-76
2021/12/08 06:37:14;;;;;;;0.00;0.00;;;3.80;99.90;;;;;;4878119;29;20465;-76
2021/12/08 06:39:48;;;;;;;0.00;0.00;;;3.80;99.90;;;;;;4877334;29;20096;-77
2021/12/08 06:42:19;;;;;;;0.10;0.10;;;3.80;99.90;;;;;;4886542;29;20029;-76
2021/12/08 06:44:48;;;;;;;0.10;0.10;;;3.90;99.90;;;;;;4895225;29;20502;-76
2021/12/08 06:47:20;;;;;;;5.90;3.40;;;3.90;99.90;;;;;;4878347;29;20056;-77
2021/12/08 06:49:49;;;;;;;6.20;2.13;;;3.90;99.90;;;;;;4878363;29;20280;-76
2021/12/08 06:52:20;;;;;;;4.30;2.60;;;3.90;99.90;;;;;;4897792;29;20032;-79
2021/12/08 06:55:14;;;;;;;3.03;2.30;;;4.00;99.90;;;;;;4881282;29;20071;-79
2021/12/08 06:57:45;;;;;;;8.13;3.38;;;3.90;99.90;;;;;;4884773;29;20031;-81
2021/12/08 07:00:22;;;;;;;4.93;3.65;;;3.90;99.90;;;;;;4900831;29;20024;-79
2021/12/08 07:02:58;;;;;;;4.45;2.25;;;3.80;99.90;;;;;;4899986;29;20422;-79
2021/12/08 07:05:31;;;;;;;0.73;0.73;;;3.80;99.90;;;;;;4885149;29;20052;-81
2021/12/08 07:08:06;;;;;;;0.55;0.55;;;3.80;99.90;;;;;;4886633;29;20041;-81
2021/12/08 07:10:41;;;;;;;2.47;0.28;;;3.80;99.90;;;;;;4888203;29;20167;-81
2021/12/08 07:13:15;;;;;;;0.25;0.15;;;3.80;99.90;;;;;;4882762;29;20061;-80
2021/12/08 07:15:45;;;;;;;2.38;2.17;;;3.70;99.90;;;;;;4895623;29;20039;-79
2021/12/08 07:18:16;;;;;;;;;;;3.70;99.90;;;;;;4889136;29;20024;-80
2021/12/08 07:20:49;;;;;;;2.33;1.60;;;3.60;99.90;;;;;;4880205;29;19911;-82
2021/12/08 07:23:18;;;;;;;5.68;1.98;;;3.60;99.90;;;;;;4891596;29;20033;-78
2021/12/08 07:25:45;;;;;;;1.83;1.63;;;3.60;99.90;;;;;;4888503;29;20513;-74
2021/12/08 07:28:12;;;;;;;2.13;1.90;;;3.60;99.90;;;;;;4882674;29;21234;-80
2021/12/08 07:30:44;;;;;;;3.70;1.42;;;3.60;99.90;;;;;;4904211;29;20039;-82
2021/12/08 07:33:09;;;;;;;3.35;1.75;;;3.60;99.90;;;;;;4900938;29;20537;-81
2021/12/08 07:35:49;;;;;;;8.63;3.67;;;3.70;99.90;;;;;;4887885;29;20040;-83
2021/12/08 07:38:18;;;;;;;1.63;1.45;;;3.80;99.90;;;;;;4890136;29;20028;-83
2021/12/08 07:40:55;;;;;;;2.63;1.85;;;3.90;99.90;;;;;;4897310;29;20033;-82
2021/12/08 07:43:24;;;;;;;5.97;3.42;;;3.80;99.90;;;;;;4869742;29;20395;-80
2021/12/08 07:46:02;;;;;;;13.00;4.18;;;3.70;99.90;;;;;;4879137;29;20032;-78
2021/12/08 07:48:34;;;;;;;8.02;4.18;;;3.60;99.90;;;;;;4861048;29;20131;-78
2021/12/08 07:51:06;;;;;;;4.97;3.60;;;3.60;99.90;;;;;;4877854;29;20092;-75
2021/12/08 07:53:32;;;;;;;3.58;2.42;;;3.60;99.90;;;;;;4882257;29;20266;-83
2021/12/08 07:56:03;;;;;;;2.75;2.22;;;3.70;99.90;;;;;;4886020;29;20025;-81
2021/12/08 07:58:33;;;;;;;3.60;2.22;;;3.80;99.90;;;;;;4865561;29;20120;-78
2021/12/08 08:01:04;;;;;;;7.28;2.85;;;3.80;99.90;;;;;;4880644;29;20112;-79
2021/12/08 08:03:32;;;;;;;4.45;2.97;;;3.70;99.90;;;;;;4874583;29;20534;-78
2021/12/08 08:06:02;;;;;;;5.57;3.08;;;3.70;99.90;;;;;;4858762;29;20478;-79
2021/12/08 08:08:31;;;;;;;0.95;0.93;;;3.60;99.90;;;;;;4878372;29;20088;-82
2021/12/08 08:11:12;;;;;;;2.00;1.03;;;3.60;99.90;;;;;;4869645;29;20025;-78
2021/12/08 08:13:38;;;;;;;7.15;4.15;;;3.70;99.90;;;;;;4882190;29;20037;-81
2021/12/08 08:16:08;;;;;;;8.73;4.13;;;3.90;99.90;;;;;;4884077;29;20036;-79
2021/12/08 08:18:38;;;;;;;2.97;2.55;;;3.80;99.90;;;;;;4896394;29;20057;-78
2021/12/08 08:21:12;;;;;;;5.75;2.92;;;3.80;99.90;;;;;;4880559;29;20029;-78
2021/12/08 08:23:38;;;;;;;3.05;2.47;;;3.80;99.90;;;;;;4865179;29;20124;-82
2021/12/08 08:26:07;;;;;;;2.85;1.75;;;3.70;99.90;;;;;;4885833;29;20070;-81
2021/12/08 08:28:34;;;;;;;2.50;1.10;;;3.60;99.90;;;;;;4865385;29;20045;-79
2021/12/08 08:31:14;;;;;;;0.75;0.75;;;3.60;99.90;;;;;;4863032;29;20033;-82
2021/12/08 08:33:41;;;;;;;0.17;0.17;;;3.70;99.90;;;;;;4862104;29;20084;-80
2021/12/08 08:36:11;;;;;;;0.40;0.40;;;3.70;99.90;;;;;;4860991;29;20067;-83
2021/12/08 08:38:42;;;;;;;;;;;3.80;99.90;;;;;;4890868;29;20025;-81
2021/12/08 08:41:14;;;;;;;1.58;1.17;;;3.80;99.90;;;;;;4873328;29;19927;-81
2021/12/08 08:43:40;;;;;;;4.13;2.38;;;3.80;99.90;;;;;;4885797;29;20035;-81
2021/12/08 08:46:14;;;;;;;5.80;1.90;;;3.80;99.90;;;;;;4896776;29;20040;-79
2021/12/08 08:48:48;;;;;;;8.98;4.50;;;3.80;99.90;;;;;;4894324;29;20509;-78
2021/12/08 08:51:45;;;;;;;2.40;1.35;;;3.80;99.90;;;;;;4896039;29;20029;-78
2021/12/08 08:54:15;;;;;;;3.70;1.95;;;3.80;99.90;;;;;;4892015;29;20044;-80
2021/12/08 08:56:50;;;;;;;2.35;1.65;;;3.80;99.90;;;;;;4892394;29;20060;-79
2021/12/08 08:59:28;;;;;;;3.80;2.17;;;3.80;99.90;;;;;;4876445;29;20405;-77
2021/12/08 09:01:57;;;;;;;2.92;1.20;;;3.80;99.90;;;;;;4904309;29;20120;-80
2021/12/08 09:04:34;;;;;;;1.98;1.17;;;3.80;99.90;;;;;;4887236;29;20041;-81
2021/12/08 09:07:03;;;;;;;0.60;0.60;;;3.90;99.90;;;;;;4879016;29;20325;-81
2021/12/08 09:09:33;;;;;;;1.15;1.00;;;3.90;99.90;;;;;;4918356;29;20091;-81
2021/12/08 09:12:11;;;;;;;1.20;1.13;;;3.90;99.90;;;;;;4895880;29;20083;-81
2021/12/08 09:14:46;;;;;;;4.55;1.73;;;3.90;99.90;;;;;;4913070;29;20036;-83
2021/12/08 09:17:43;;;;;;;3.83;2.22;;;3.90;99.90;;;;;;4913507;29;20032;-83
2021/12/08 09:20:20;;;;;;;4.07;1.55;;;4.00;99.90;;;;;;4927527;29;20032;-83
2021/12/08 09:23:14;;;;;;;2.70;1.77;;;4.00;99.90;;;;;;4899335;29;20092;-83
2021/12/08 09:25:40;;;;;;;2.33;1.95;;;4.10;99.90;;;;;;4901846;29;20108;-83
2021/12/08 09:28:17;;;;;;;5.25;1.88;;;4.30;99.90;;;;;;4909588;29;20055;-83
2021/12/08 09:31:03;;;;;;;8.70;2.55;;;4.50;99.90;;;;;;4886289;29;20111;-79
2021/12/08 09:33:38;;;;;;;2.80;1.83;;;4.50;99.90;;;;;;4881383;29;20397;-79
2021/12/08 09:36:10;;;;;;;2.63;1.75;;;4.40;99.90;;;;;;4878100;29;20033;-79
2021/12/08 09:38:46;;;;;;;5.03;3.83;;;4.50;99.90;;;;;;4889196;29;20158;-84
2021/12/08 09:41:28;;;;;;;5.43;2.70;;;4.60;99.90;;;;;;4923073;29;20096;-82
2021/12/08 09:44:07;;;;;;;2.47;2.17;;;4.60;99.90;;;;;;4875663;29;20017;-77
2021/12/08 09:46:39;;;;;;;3.90;3.20;;;4.50;99.90;;;;;;4856458;29;20162;-77
2021/12/08 09:49:06;;;;;;;2.42;2.13;;;4.50;99.90;;;;;;4857037;29;20069;-77
2021/12/08 09:51:33;;;;;;;5.10;3.40;;;4.50;99.90;;;;;;4874023;29;20029;-77
2021/12/08 09:53:59;;;;;;;5.68;2.88;;;4.50;99.90;;;;;;4872131;29;20033;-81
2021/12/08 09:56:25;;;;;;;3.10;2.38;;;4.60;99.90;;;;;;4873079;29;20039;-80
2021/12/08 09:58:53;;;;;;;6.80;3.40;;;4.60;99.90;;;;;;4896031;29;20386;-81
2021/12/08 10:01:21;;;;;;;4.95;3.50;;;4.60;99.90;;;;;;4895819;29;20029;-79
2021/12/08 10:03:52;;;;;;;4.57;3.38;;;4.70;99.90;;;;;;4879166;29;20089;-84
2021/12/08 10:06:44;;;;;;;3.08;2.80;;;4.70;99.90;;;;;;4891742;29;20041;-83
2021/12/08 10:09:10;;;;;;;4.10;2.92;;;4.80;99.90;;;;;;4872140;29;20139;-80
2021/12/08 10:11:36;;;;;;;5.53;3.25;;;4.70;99.90;;;;;;4896895;29;20037;-80
2021/12/08 10:14:03;;;;;;;2.60;2.40;;;4.70;99.90;;;;;;4886624;29;20044;-77
2021/12/08 10:16:30;;;;;;;5.88;4.15;;;4.60;99.90;;;;;;4891821;29;20040;-77
2021/12/08 10:18:56;;;;;;;4.50;2.65;;;4.60;99.90;;;;;;4875046;29;20036;-77
2021/12/08 10:21:33;;;;;;;2.40;2.20;;;4.60;99.90;;;;;;4880283;29;20020;-80
2021/12/08 10:23:58;;;;;;;2.90;2.53;;;4.70;99.90;;;;;;4876563;29;20037;-78
2021/12/08 10:26:25;;;;;;;3.28;2.28;;;4.80;99.90;;;;;;4874216;29;20033;-79
2021/12/08 10:28:59;;;;;;;5.20;3.45;;;4.80;99.90;;;;;;4878352;29;20048;-80
2021/12/08 10:31:31;;;;;;;6.10;2.72;;;5.00;99.90;;;;;;4875993;29;20024;-77
2021/12/08 10:34:03;;;;;;;3.70;2.28;;;5.00;99.90;;;;;;4873625;29;20056;-79
2021/12/08 10:39:10;;;;;;;4.68;2.80;;;5.20;99.90;;;;;;4876265;29;20025;-78
2021/12/08 10:41:43;;;;;;;4.22;2.50;;;6.50;99.90;;;;;;4864405;29;20120;-80
2021/12/08 10:44:08;;;;;;;2.92;2.70;;;5.20;99.90;;;;;;4877762;29;20052;-83
2021/12/08 10:46:37;;;;;;;2.67;2.42;;;5.20;99.90;;;;;;4886673;29;20036;-78
2021/12/08 10:54:25;;;;;;;4.13;2.53;;;5.20;99.90;;;;;;4874392;29;20041;-77
2021/12/08 10:54:54;;;;;;;7.70;4.22;;;5.20;99.90;;;;;;4885093;29;20051;-78
2021/12/08 10:57:25;;;;;;;7.88;3.50;;;5.20;99.90;;;;;;4846914;29;20033;-78
2021/12/08 11:00:06;;;;;;;6.18;2.75;;;5.40;99.90;;;;;;4872212;29;20037;-79
2021/12/08 11:02:44;;;;;;;3.63;2.65;;;5.40;99.90;;;;;;4856399;29;20037;-78
2021/12/08 11:05:24;;;;;;;3.50;3.05;;;5.60;99.90;;;;;;4840260;29;20394;-79
2021/12/08 11:08:20;;;;;;;5.47;2.72;;;5.60;99.90;;;;;;4857014;29;20524;-78
2021/12/08 11:11:20;;;;;;;2.88;2.67;;;5.50;99.90;;;;;;4855200;29;20035;-77
2021/12/08 11:13:50;;;;;;;5.10;2.85;;;5.50;99.90;;;;;;4840278;29;20034;-77
2021/12/08 11:16:21;;;;;;;5.82;3.47;;;5.50;99.90;;;;;;4856269;29;20382;-77
2021/12/08 11:18:53;;;;;;;4.05;3.10;;;5.40;99.90;;;;;;4856583;29;20025;-77
2021/12/08 11:21:24;;;;;;;3.53;2.70;;;5.40;99.90;;;;;;4856976;29;20030;-77
2021/12/08 11:23:52;;;;;;;3.28;2.42;;;5.30;99.90;;;;;;4856862;29;20037;-77
2021/12/08 11:26:21;;;;;;;9.02;4.60;;;5.20;99.90;;;;;;4843222;29;20093;-77
2021/12/08 11:29:01;;;;;;;5.30;3.97;;;5.00;99.90;;;;;;4878437;29;20041;-77
2021/12/08 11:31:39;;;;;;;2.78;1.38;;;5.00;99.90;;;;;;4856997;29;20515;-77
2021/12/08 11:34:35;;;;;;;1.40;1.17;;;5.00;99.90;;;;;;4841157;29;20065;-77
2021/12/08 11:37:14;;;;;;;2.38;1.13;;;5.00;99.90;;;;;;4850879;29;20045;-78
2021/12/08 11:39:42;;;;;;;1.20;0.98;;;5.00;99.90;;;;;;4855185;29;20479;-79
2021/12/08 11:42:19;;;;;;;2.60;1.73;;;5.00;99.90;;;;;;4866365;29;20064;-78
2021/12/08 11:44:50;;;;;;;2.53;1.60;;;5.00;99.90;;;;;;4856230;29;20041;-77
2021/12/08 11:47:22;;;;;;;1.55;1.40;;;5.00;99.90;;;;;;4874042;29;20037;-77
2021/12/08 11:49:51;;;;;;;0.90;0.90;;;5.00;99.90;;;;;;4875713;29;20390;-78
2021/12/08 11:52:23;;;;;;;1.42;1.30;;;5.00;99.90;;;;;;4875991;29;20135;-78
2021/12/08 11:55:00;;;;;;;1.55;1.42;;;5.00;99.90;;;;;;4891220;29;20072;-78
2021/12/08 11:57:33;;;;;;;3.28;1.70;;;5.80;99.90;;;;;;4877492;29;20021;-78
2021/12/08 12:00:21;;;;;;;1.88;1.45;;;4.90;99.90;;;;;;4891298;29;20017;-78
2021/12/08 12:02:56;;;;;;;1.70;1.60;;;4.90;99.90;;;;;;4875299;29;20025;-78
2021/12/08 12:05:45;;;;;;;7.07;2.95;;;4.90;99.90;;;;;;4876451;29;20165;-78
2021/12/08 12:08:13;;;;;;;5.28;2.80;;;4.90;99.90;;;;;;4890788;29;20421;-77
2021/12/08 12:10:46;;;;;;;22.10;8.57;;;5.00;99.90;;;;;;4877684;29;20040;-78
2021/12/08 12:13:13;;;;;;;21.83;8.70;;;4.90;99.90;;;;;;4876613;29;20364;-77
2021/12/08 12:15:44;;;;;;;30.60;11.18;;;5.00;99.90;;;;;;4875790;29;20036;-77
2021/12/08 12:18:10;;;;;;;11.63;5.43;;;4.90;99.90;;;;;;4877879;29;20056;-76
2021/12/08 12:20:39;;;;;;;7.03;3.05;;;4.90;99.90;;;;;;4876680;29;20025;-78
2021/12/08 12:23:30;;;;;;;4.53;2.63;;;4.90;99.90;;;;;;4876585;29;20033;-77
2021/12/08 12:26:03;;;;;;;4.35;2.95;;;4.90;99.90;;;;;;4875839;29;20135;-77
2021/12/08 12:28:32;;;;;;;3.67;3.20;;;4.90;99.90;;;;;;4876124;29;20067;-77
2021/12/08 12:31:21;;;;;;;4.87;2.97;;;5.00;99.90;;;;;;4873456;29;20546;-77
2021/12/08 12:33:49;;;;;;;2.30;1.87;;;5.00;99.90;;;;;;4873685;29;20365;-77
2021/12/08 12:36:24;;;;;;;4.57;2.40;;;4.90;99.90;;;;;;4858378;29;20043;-78
2021/12/08 12:38:51;;;;;;;11.13;3.38;;;5.00;99.90;;;;;;4875679;29;20108;-78
2021/12/08 12:41:30;;;;;;;11.25;4.65;;;5.20;99.90;;;;;;4877042;29;20060;-77
2021/12/08 12:44:17;;;;;;;6.23;3.47;;;5.20;99.90;;;;;;4894069;29;20172;-77
2021/12/08 12:47:05;;;;;;;9.32;3.22;;;5.20;99.90;;;;;;4893352;29;20273;-77
2021/12/08 12:49:32;;;;;;;4.55;2.22;;;5.00;99.90;;;;;;4894439;29;20087;-78
2021/12/08 12:52:00;;;;;;;4.18;2.28;;;5.00;99.90;;;;;;4875947;29;20131;-77
2021/12/08 12:54:27;;;;;;;7.75;3.92;;;4.90;99.90;;;;;;4893718;29;20028;-77
2021/12/08 12:56:54;;;;;;;8.85;4.47;;;5.00;99.90;;;;;;4893780;29;20545;-77
2021/12/08 12:59:22;;;;;;;7.35;4.40;;;4.90;99.90;;;;;;4876627;29;20040;-77
2021/12/08 13:02:11;;;;;;;19.52;5.35;;;4.90;99.90;;;;;;4871654;29;20032;-76
2021/12/08 13:04:57;;;;;;;6.43;3.60;;;4.80;99.90;;;;;;4876078;29;20116;-77
2021/12/08 13:07:29;;;;;;;17.73;5.57;;;4.70;99.90;;;;;;4865860;29;20049;-81
2021/12/08 13:09:56;;;;;;;8.38;5.28;;;4.80;99.90;;;;;;4871008;29;20043;-83
2021/12/08 13:12:26;;;;;;;17.50;4.40;;;4.70;99.90;;;;;;4865168;29;20029;-81
2021/12/08 13:15:13;;;;;;;;;;;4.70;99.90;;;;;;4875981;29;20387;-76
2021/12/08 13:18:03;;;;;;;8.45;5.10;;;4.70;99.90;;;;;;4873238;29;20506;-78
2021/12/08 13:20:33;;;;;;;7.57;4.72;;;4.80;99.90;;;;;;4857079;29;20032;-77
2021/12/08 13:23:03;;;;;;;10.48;3.50;;;4.80;99.90;;;;;;4857378;29;20035;-77
2021/12/08 13:28:18;;;;;;;5.70;2.97;;;4.60;99.90;;;;;;4874955;29;20072;-77
2021/12/08 13:30:57;;;;;;;5.30;3.88;;;4.60;99.90;;;;;;4873367;29;20510;-77
2021/12/08 13:33:33;;;;;;;4.13;2.58;;;4.70;99.90;;;;;;4857602;29;20041;-77
2021/12/08 13:36:28;;;;;;;8.85;4.22;;;4.70;99.90;;;;;;4856961;29;20024;-78
2021/12/08 13:38:54;;;;;;;10.93;2.83;;;4.70;99.90;;;;;;4857924;29;20413;-77
2021/12/08 13:41:21;;;;;;;5.22;3.22;;;4.70;99.90;;;;;;4851933;29;20037;-77
2021/12/08 13:43:50;;;;;;;6.82;2.92;;;6.30;99.90;;;;;;4873785;29;20055;-77
2021/12/08 13:46:37;;;;;;;4.78;2.78;;;4.60;99.90;;;;;;4891516;29;20503;-77
2021/12/08 13:49:22;;;;;;;9.07;4.07;;;4.60;99.90;;;;;;4889888;29;20037;-77
2021/12/08 13:52:06;;;;;;;4.07;2.92;;;4.50;99.90;;;;;;4884618;29;20029;-77
2021/12/08 13:54:34;;;;;;;7.85;4.97;;;4.40;99.90;;;;;;4870544;29;20116;-76
2021/12/08 13:57:01;;;;;;;12.20;4.47;;;4.40;99.90;;;;;;4856107;29;20649;-77
2021/12/08 13:59:55;;;;;;;6.18;3.70;;;4.40;99.90;;;;;;4854118;29;20117;-77
2021/12/08 14:02:32;;;;;;;4.22;3.22;;;4.50;99.90;;;;;;4856216;29;20029;-76
2021/12/08 14:05:02;;;;;;;7.78;3.95;;;4.50;99.90;;;;;;4854408;29;20060;-76
2021/12/08 14:07:28;;;;;;;6.10;3.63;;;4.50;99.90;;;;;;4855221;29;20053;-77
2021/12/08 14:09:59;;;;;;;5.03;3.20;;;4.50;99.90;;;;;;4874040;29;20038;-83
2021/12/08 14:12:43;;;;;;;5.82;4.00;;;4.40;99.90;;;;;;4841330;29;20491;-76
2021/12/08 14:15:13;;;;;;;8.50;4.30;;;4.40;99.90;;;;;;4840884;29;20037;-76
2021/12/08 14:17:39;;;;;;;5.57;4.13;;;4.40;99.90;;;;;;4870282;29;20037;-77
2021/12/08 14:20:23;;;;;;;2.83;2.58;;;4.30;99.90;;;;;;4856484;29;20440;-78
2021/12/08 14:22:48;;;;;;;8.02;2.83;;;4.30;99.90;;;;;;4856867;29;20057;-75